createdAt,value
2023-05-13T00:00:32.788Z,11.86
2023-05-13T00:03:10.910Z,11.77
2023-05-13T00:05:38.645Z,11.74
2023-05-13T00:08:09.742Z,11.68
2023-05-13T00:10:37.654Z,11.65
2023-05-13T00:13:05.370Z,11.62
2023-05-13T00:15:33.008Z,11.55
2023-05-13T00:18:00.732Z,11.47
2023-05-13T00:20:28.443Z,11.39
2023-05-13T00:22:56.172Z,11.26
2023-05-13T00:25:24.344Z,11.15
2023-05-13T00:27:52.269Z,11.06
2023-05-13T00:30:21.197Z,11.04
2023-05-13T00:32:49.134Z,11.01
2023-05-13T00:35:16.887Z,10.98
2023-05-13T00:37:45.162Z,10.89
2023-05-13T00:40:23.955Z,10.83
2023-05-13T00:42:52.357Z,10.79
2023-05-13T00:45:19.966Z,10.77
2023-05-13T00:47:49.625Z,10.72
2023-05-13T00:50:17.499Z,10.68
2023-05-13T00:52:46.300Z,10.65
2023-05-13T00:55:14.078Z,10.58
2023-05-13T00:57:41.931Z,10.54
2023-05-13T01:00:10.660Z,10.48
2023-05-13T01:03:12.831Z,10.42
2023-05-13T01:06:09.937Z,10.27
2023-05-13T01:08:46.699Z,10.17
2023-05-13T01:11:25.716Z,10.15
2023-05-13T01:14:02.812Z,10.18
2023-05-13T01:16:55.870Z,10.22
2023-05-13T01:19:43.233Z,10.21
2023-05-13T01:22:11.000Z,10.16
2023-05-13T01:24:38.846Z,10.16
2023-05-13T01:27:07.321Z,10.09
2023-05-13T01:29:35.698Z,10.04
2023-05-13T01:32:04.243Z,10.00
2023-05-13T01:34:33.710Z,9.88
2023-05-13T01:37:01.642Z,9.79
2023-05-13T01:39:31.873Z,9.75
2023-05-13T01:41:59.521Z,9.66
2023-05-13T01:44:27.147Z,9.59
2023-05-13T01:46:55.421Z,9.53
2023-05-13T01:49:23.378Z,9.48
2023-05-13T01:51:52.167Z,9.42
2023-05-13T01:54:19.815Z,9.35
2023-05-13T01:56:47.699Z,9.26
2023-05-13T01:59:15.462Z,9.20
2023-05-13T02:01:43.136Z,9.15
2023-05-13T02:04:11.445Z,9.08
2023-05-13T02:06:39.173Z,9.04
2023-05-13T02:09:06.801Z,9.01
2023-05-13T02:11:35.777Z,8.99
2023-05-13T02:14:03.710Z,9.01
2023-05-13T02:16:31.626Z,9.03
2023-05-13T02:18:59.434Z,9.06
2023-05-13T02:21:27.134Z,9.10
2023-05-13T02:23:54.815Z,9.14
2023-05-13T02:26:22.478Z,9.19
2023-05-13T02:28:50.501Z,9.24
2023-05-13T02:31:18.143Z,9.29
2023-05-13T02:33:45.880Z,9.32
2023-05-13T02:36:13.623Z,9.33
2023-05-13T02:38:41.387Z,9.37
2023-05-13T02:41:11.468Z,9.37
2023-05-13T02:43:39.236Z,9.34
2023-05-13T02:46:06.969Z,9.33
2023-05-13T02:48:34.826Z,9.35
2023-05-13T02:51:02.507Z,9.42
2023-05-13T02:53:30.953Z,9.43
2023-05-13T02:55:59.343Z,9.51
2023-05-13T02:58:26.985Z,9.61
2023-05-13T03:00:54.685Z,9.70
2023-05-13T03:03:22.542Z,9.74
2023-05-13T03:05:50.413Z,9.78
2023-05-13T03:08:18.147Z,9.80
2023-05-13T03:10:45.802Z,9.84
2023-05-13T03:13:13.493Z,9.92
2023-05-13T03:15:43.455Z,9.96
2023-05-13T03:18:12.037Z,10.07
2023-05-13T03:20:40.066Z,10.17
2023-05-13T03:23:08.155Z,10.31
2023-05-13T03:25:35.780Z,10.44
2023-05-13T03:28:03.986Z,10.47
2023-05-13T03:30:31.708Z,10.39
2023-05-13T03:33:00.652Z,10.29
2023-05-13T03:35:28.378Z,10.22
2023-05-13T03:37:55.999Z,10.20
2023-05-13T03:40:23.784Z,10.19
2023-05-13T03:42:51.697Z,10.20
2023-05-13T03:45:19.519Z,10.13
2023-05-13T03:47:47.386Z,10.12
2023-05-13T03:50:15.134Z,10.14
2023-05-13T03:52:43.981Z,10.10
2023-05-13T03:55:15.025Z,10.03
2023-05-13T03:57:47.585Z,9.96
2023-05-13T04:00:15.952Z,9.89
2023-05-13T04:02:44.482Z,9.93
2023-05-13T04:05:13.813Z,9.95
2023-05-13T04:07:41.884Z,9.98
2023-05-13T04:10:12.333Z,9.98
2023-05-13T04:12:41.452Z,9.99
2023-05-13T04:15:09.395Z,10.03
2023-05-13T04:17:37.166Z,10.07
2023-05-13T04:20:07.515Z,10.10
2023-05-13T04:22:35.868Z,10.15
2023-05-13T04:25:03.641Z,10.20
2023-05-13T04:27:33.411Z,10.25
2023-05-13T04:30:01.286Z,10.41
2023-05-13T04:32:32.105Z,10.62
2023-05-13T04:34:59.765Z,10.81
2023-05-13T04:37:27.491Z,10.98
2023-05-13T04:39:55.202Z,11.19
2023-05-13T04:42:22.881Z,11.42
2023-05-13T04:44:50.506Z,11.71
2023-05-13T04:47:18.874Z,11.98
2023-05-13T04:49:46.767Z,12.18
2023-05-13T04:52:15.036Z,12.48
2023-05-13T04:54:42.737Z,12.63
2023-05-13T04:57:10.406Z,12.84
2023-05-13T04:59:38.660Z,13.28
2023-05-13T05:02:06.360Z,13.69
2023-05-13T05:04:34.121Z,14.04
2023-05-13T05:07:01.828Z,14.34
2023-05-13T05:09:30.253Z,14.60
2023-05-13T05:11:57.912Z,14.90
2023-05-13T05:14:25.580Z,15.13
2023-05-13T05:16:53.281Z,15.27
2023-05-13T05:19:24.292Z,15.47
2023-05-13T05:21:52.619Z,15.61
2023-05-13T05:24:20.434Z,15.77
2023-05-13T05:26:48.112Z,15.90
2023-05-13T05:29:16.413Z,16.12
2023-05-13T05:31:44.480Z,16.35
2023-05-13T05:34:12.410Z,16.52
2023-05-13T05:36:40.041Z,16.57
2023-05-13T05:39:07.980Z,16.54
2023-05-13T05:41:35.763Z,16.31
2023-05-13T05:44:09.899Z,16.05
2023-05-13T05:46:37.589Z,16.21
2023-05-13T05:49:05.286Z,17.06
2023-05-13T05:51:32.903Z,18.17
2023-05-13T05:54:00.479Z,18.93
2023-05-13T05:56:28.110Z,19.87
2023-05-13T05:58:55.785Z,20.63
2023-05-13T06:01:23.412Z,21.14
2023-05-13T06:03:53.972Z,21.42
2023-05-13T06:06:22.681Z,21.86
2023-05-13T06:08:50.393Z,22.35
2023-05-13T06:11:18.177Z,22.59
2023-05-13T06:13:46.006Z,22.61
2023-05-13T06:16:13.743Z,22.90
2023-05-13T06:18:41.470Z,23.06
2023-05-13T06:21:09.346Z,23.36
2023-05-13T06:23:37.792Z,23.92
2023-05-13T06:26:05.541Z,24.31
2023-05-13T06:28:33.347Z,24.51
2023-05-13T06:31:00.973Z,24.42
2023-05-13T06:33:28.844Z,24.23
2023-05-13T06:35:56.644Z,24.15
2023-05-13T06:38:24.346Z,24.40
2023-05-13T06:40:52.081Z,24.60
2023-05-13T06:43:19.776Z,24.73
2023-05-13T06:45:48.841Z,24.76
2023-05-13T06:48:16.661Z,25.08
2023-05-13T06:50:44.410Z,25.40
2023-05-13T06:53:12.622Z,25.45
2023-05-13T06:55:42.651Z,25.59
2023-05-13T06:58:10.692Z,25.77
2023-05-13T07:00:40.524Z,25.73
2023-05-13T07:03:08.695Z,25.14
2023-05-13T07:05:36.568Z,25.17
2023-05-13T07:08:08.496Z,25.28
2023-05-13T07:10:37.063Z,25.70
2023-05-13T07:13:05.010Z,26.23
2023-05-13T07:15:32.774Z,26.60
2023-05-13T07:18:00.500Z,26.89
2023-05-13T07:20:28.221Z,27.23
2023-05-13T07:22:56.373Z,27.41
2023-05-13T07:25:24.968Z,27.34
2023-05-13T07:27:52.613Z,27.64
2023-05-13T07:30:20.566Z,27.92
2023-05-13T07:32:48.519Z,28.17
2023-05-13T07:35:17.225Z,27.92
2023-05-13T07:37:45.196Z,27.72
2023-05-13T07:40:13.997Z,27.74
2023-05-13T07:42:42.240Z,28.46
2023-05-13T07:45:10.498Z,29.05
2023-05-13T07:47:38.364Z,28.78
2023-05-13T07:50:07.579Z,28.51
2023-05-13T07:52:35.537Z,28.28
2023-05-13T07:55:03.249Z,28.37
2023-05-13T07:57:30.897Z,28.83
2023-05-13T07:59:58.591Z,29.03
2023-05-13T08:02:27.066Z,29.23
2023-05-13T08:04:55.113Z,29.42
2023-05-13T08:07:22.793Z,28.70
2023-05-13T08:09:50.487Z,28.42
2023-05-13T08:12:18.200Z,28.35
2023-05-13T08:14:47.571Z,28.11
2023-05-13T08:17:18.280Z,28.11
2023-05-13T08:19:46.356Z,27.49
2023-05-13T08:22:14.020Z,27.81
2023-05-13T08:24:43.181Z,28.30
2023-05-13T08:27:10.895Z,28.15
2023-05-13T08:29:38.694Z,28.01
2023-05-13T08:32:07.093Z,28.21
2023-05-13T08:34:34.807Z,27.65
2023-05-13T08:37:02.537Z,27.53
2023-05-13T08:39:30.194Z,27.66
2023-05-13T08:41:58.509Z,26.80
2023-05-13T08:44:29.462Z,27.16
2023-05-13T08:47:34.227Z,27.00
2023-05-13T08:50:03.293Z,25.84
2023-05-13T08:52:34.332Z,25.82
2023-05-13T08:55:08.751Z,25.77
2023-05-13T08:57:36.421Z,26.29
2023-05-13T09:00:07.640Z,27.62
2023-05-13T09:02:35.476Z,28.28
2023-05-13T09:05:08.977Z,28.32
2023-05-13T09:07:38.426Z,26.94
2023-05-13T09:10:08.222Z,25.21
2023-05-13T09:12:50.377Z,25.68
2023-05-13T09:15:20.443Z,26.88
2023-05-13T09:17:54.415Z,28.36
2023-05-13T09:20:22.963Z,30.35
2023-05-13T09:22:53.132Z,31.56
2023-05-13T09:25:24.350Z,32.05
2023-05-13T09:27:57.521Z,32.45
2023-05-13T09:30:31.016Z,31.96
2023-05-13T09:33:19.961Z,31.62
2023-05-13T09:35:53.647Z,30.24
2023-05-13T09:38:22.336Z,28.61
2023-05-13T09:40:57.918Z,29.11
2023-05-13T09:43:31.494Z,31.10
2023-05-13T09:46:04.364Z,32.09
2023-05-13T09:48:33.988Z,31.64
2023-05-13T09:51:24.043Z,32.32
2023-05-13T09:54:18.999Z,31.05
2023-05-13T09:56:46.830Z,28.89
2023-05-13T09:59:16.381Z,28.27
2023-05-13T10:01:45.452Z,26.92
2023-05-13T10:04:14.132Z,26.69
2023-05-13T10:06:41.869Z,27.84
2023-05-13T10:09:13.459Z,27.51
2023-05-13T10:11:47.570Z,26.73
2023-05-13T10:14:17.151Z,25.57
2023-05-13T10:16:45.512Z,25.24
2023-05-13T10:19:13.940Z,25.37
2023-05-13T10:21:42.220Z,26.37
2023-05-13T10:24:10.013Z,26.84
2023-05-13T10:26:38.192Z,26.05
2023-05-13T10:29:06.758Z,25.89
2023-05-13T10:31:35.163Z,26.87
2023-05-13T10:34:04.092Z,27.21
2023-05-13T10:36:50.556Z,27.86
2023-05-13T10:39:36.425Z,30.53
2023-05-13T10:42:55.723Z,31.40
2023-05-13T10:45:27.312Z,32.48
2023-05-13T10:47:56.303Z,34.06
2023-05-13T10:50:25.336Z,34.65
2023-05-13T10:52:58.202Z,32.82
2023-05-13T10:55:27.957Z,30.42
2023-05-13T10:58:09.786Z,28.40
2023-05-13T11:00:39.045Z,27.44
2023-05-13T11:03:15.210Z,26.42
2023-05-13T11:06:20.339Z,25.56
2023-05-13T11:08:55.060Z,24.92
2023-05-13T11:11:29.133Z,24.41
2023-05-13T11:13:59.837Z,24.26
2023-05-13T11:16:27.607Z,24.29
2023-05-13T11:18:55.467Z,24.45
2023-05-13T11:21:35.554Z,25.64
2023-05-13T11:24:05.559Z,28.04
2023-05-13T11:26:59.214Z,30.19
2023-05-13T11:29:35.791Z,31.27
2023-05-13T11:32:05.937Z,31.11
2023-05-13T11:34:34.447Z,29.83
2023-05-13T11:37:05.122Z,27.66
2023-05-13T11:39:33.285Z,26.85
2023-05-13T11:42:05.200Z,26.43
2023-05-13T11:44:34.374Z,26.04
2023-05-13T11:47:05.920Z,25.97
2023-05-13T11:49:40.140Z,25.89
2023-05-13T11:52:15.606Z,25.34
2023-05-13T11:54:50.738Z,25.17
2023-05-13T11:57:20.267Z,25.76
2023-05-13T11:59:57.585Z,27.11
2023-05-13T12:02:30.699Z,28.22
2023-05-13T12:11:40.621Z,29.87
2023-05-13T12:14:09.240Z,28.64
2023-05-13T12:16:37.250Z,27.98
2023-05-13T12:19:07.273Z,28.89
2023-05-13T12:21:35.137Z,28.73
2023-05-13T12:24:16.229Z,28.37
2023-05-13T12:26:44.028Z,27.52
2023-05-13T12:29:12.201Z,26.80
2023-05-13T12:31:42.699Z,28.45
2023-05-13T12:34:10.789Z,29.04
2023-05-13T12:36:39.264Z,29.90
2023-05-13T12:39:09.218Z,30.36
2023-05-13T12:41:39.045Z,31.22
2023-05-13T12:44:14.168Z,31.42
2023-05-13T12:46:55.284Z,30.45
2023-05-13T12:49:23.070Z,30.23
2023-05-13T12:51:51.799Z,28.89
2023-05-13T12:54:19.629Z,27.71
2023-05-13T12:56:48.569Z,27.46
2023-05-13T12:59:16.923Z,27.25
2023-05-13T13:01:44.793Z,26.85
2023-05-13T13:04:12.580Z,27.42
2023-05-13T13:06:40.512Z,29.15
2023-05-13T13:09:08.212Z,30.71
2023-05-13T13:11:36.084Z,31.19
2023-05-13T13:14:03.754Z,31.27
2023-05-13T13:16:31.875Z,30.43
2023-05-13T13:19:01.695Z,30.85
2023-05-13T13:21:29.793Z,29.87
2023-05-13T13:23:57.486Z,28.74
2023-05-13T13:26:25.108Z,28.09
2023-05-13T13:28:52.748Z,27.73
2023-05-13T13:31:20.786Z,27.63
2023-05-13T13:33:48.859Z,27.63
2023-05-13T13:36:17.131Z,26.95
2023-05-13T13:38:45.378Z,28.09
2023-05-13T13:41:13.071Z,28.60
2023-05-13T13:43:40.790Z,29.04
2023-05-13T13:46:11.141Z,29.38
2023-05-13T13:48:38.863Z,30.04
2023-05-13T13:51:06.564Z,31.05
2023-05-13T13:53:34.126Z,30.73
2023-05-13T13:56:02.549Z,29.13
2023-05-13T13:58:30.188Z,27.67
2023-05-13T14:00:58.003Z,26.97
2023-05-13T14:03:28.948Z,26.56
2023-05-13T14:05:56.734Z,25.42
2023-05-13T14:08:24.816Z,24.66
2023-05-13T14:10:53.770Z,24.11
2023-05-13T14:13:21.998Z,23.91
2023-05-13T14:15:50.110Z,24.08
2023-05-13T14:18:18.278Z,23.97
2023-05-13T14:20:47.984Z,24.11
2023-05-13T14:23:16.649Z,24.38
2023-05-13T14:25:44.863Z,24.37
2023-05-13T14:28:13.507Z,24.39
2023-05-13T14:30:41.529Z,24.31
2023-05-13T14:33:10.102Z,24.44
2023-05-13T14:35:38.526Z,25.82
2023-05-13T14:38:06.601Z,27.60
2023-05-13T14:40:34.849Z,29.14
2023-05-13T14:43:04.968Z,30.44
2023-05-13T14:45:33.277Z,31.62
2023-05-13T14:48:01.582Z,32.65
2023-05-13T14:50:29.375Z,33.48
2023-05-13T14:52:57.078Z,34.21
2023-05-13T14:55:24.755Z,35.09
2023-05-13T14:57:53.957Z,35.82
2023-05-13T15:00:21.820Z,36.64
2023-05-13T15:02:49.748Z,37.53
2023-05-13T15:05:17.621Z,38.71
2023-05-13T15:07:45.384Z,39.07
2023-05-13T15:10:12.988Z,36.45
2023-05-13T15:12:40.682Z,32.29
2023-05-13T15:15:09.016Z,28.97
2023-05-13T15:17:36.686Z,26.68
2023-05-13T15:20:04.853Z,25.86
2023-05-13T15:22:34.060Z,24.64
2023-05-13T15:25:02.099Z,22.73
2023-05-13T15:27:29.824Z,22.15
2023-05-13T15:29:57.910Z,21.84
2023-05-13T15:32:25.600Z,21.62
2023-05-13T15:34:53.302Z,21.34
2023-05-13T15:37:21.621Z,21.03
2023-05-13T15:39:49.666Z,20.79
2023-05-13T15:42:17.300Z,20.64
2023-05-13T15:44:45.700Z,20.59
2023-05-13T15:47:14.392Z,20.62
2023-05-13T15:49:42.509Z,20.77
2023-05-13T15:52:10.232Z,21.20
2023-05-13T15:54:37.955Z,23.58
2023-05-13T15:57:05.820Z,25.25
2023-05-13T15:59:33.416Z,25.59
2023-05-13T16:02:01.190Z,24.53
2023-05-13T16:04:28.859Z,23.57
2023-05-13T16:06:56.537Z,22.88
2023-05-13T16:09:24.288Z,22.51
2023-05-13T16:11:51.882Z,22.55
2023-05-13T16:14:19.632Z,22.68
2023-05-13T16:16:47.279Z,22.82
2023-05-13T16:19:14.928Z,22.89
2023-05-13T16:21:42.702Z,23.00
2023-05-13T16:24:11.346Z,23.08
2023-05-13T16:26:38.973Z,23.15
2023-05-13T16:29:06.826Z,23.18
2023-05-13T16:31:36.864Z,23.25
2023-05-13T16:34:04.561Z,23.36
2023-05-13T16:36:32.151Z,23.45
2023-05-13T16:38:59.915Z,23.51
2023-05-13T16:41:27.518Z,23.55
2023-05-13T16:43:55.115Z,23.54
2023-05-13T16:46:22.802Z,23.51
2023-05-13T16:48:50.769Z,23.50
2023-05-13T16:51:18.553Z,23.49
2023-05-13T16:53:46.136Z,23.45
2023-05-13T16:56:13.835Z,23.48
2023-05-13T16:58:41.708Z,23.49
2023-05-13T17:01:09.389Z,23.47
2023-05-13T17:03:37.047Z,23.37
2023-05-13T17:06:07.163Z,23.32
2023-05-13T17:08:34.977Z,23.19
2023-05-13T17:11:03.159Z,23.06
2023-05-13T17:13:30.735Z,22.90
2023-05-13T17:15:58.523Z,22.81
2023-05-13T17:18:26.551Z,22.69
2023-05-13T17:20:54.974Z,22.56
2023-05-13T17:23:22.799Z,22.46
2023-05-13T17:25:51.073Z,22.37
2023-05-13T17:28:18.653Z,22.01
2023-05-13T17:30:46.520Z,21.53
2023-05-13T17:33:14.365Z,21.32
2023-05-13T17:35:42.091Z,21.28
2023-05-13T17:38:09.811Z,21.24
2023-05-13T17:40:37.595Z,21.11
2023-05-13T17:43:05.367Z,21.08
2023-05-13T17:45:33.329Z,21.08
2023-05-13T17:48:01.817Z,20.94
2023-05-13T17:50:32.876Z,20.80
2023-05-13T17:53:00.564Z,20.62
2023-05-13T17:55:28.279Z,20.56
2023-05-13T17:57:56.549Z,20.38
2023-05-13T18:00:25.325Z,20.31
2023-05-13T18:02:53.136Z,20.23
2023-05-13T18:05:23.889Z,20.12
2023-05-13T18:07:51.541Z,20.08
2023-05-13T18:10:19.345Z,20.00
2023-05-13T18:12:47.387Z,19.89
2023-05-13T18:15:15.213Z,19.71
2023-05-13T18:17:43.000Z,19.53
2023-05-13T18:20:11.285Z,19.32
2023-05-13T18:22:39.640Z,19.10
2023-05-13T18:25:08.045Z,18.91
2023-05-13T18:27:35.662Z,18.77
2023-05-13T18:30:03.452Z,18.55
2023-05-13T18:32:32.876Z,18.38
2023-05-13T18:35:00.679Z,18.19
2023-05-13T18:37:28.407Z,17.98
2023-05-13T18:39:57.424Z,17.81
2023-05-13T18:42:26.130Z,17.65
2023-05-13T18:44:53.788Z,17.48
2023-05-13T18:47:21.885Z,17.41
2023-05-13T18:49:49.600Z,17.26
2023-05-13T18:52:17.289Z,17.16
2023-05-13T18:54:45.006Z,17.06
2023-05-13T18:57:12.682Z,16.93
2023-05-13T18:59:40.340Z,16.83
2023-05-13T19:02:08.134Z,16.70
2023-05-13T19:04:36.173Z,16.58
2023-05-13T19:07:04.154Z,16.50
2023-05-13T19:09:33.482Z,16.39
2023-05-13T19:12:01.290Z,16.23
2023-05-13T19:14:28.850Z,16.09
2023-05-13T19:16:56.680Z,15.97
2023-05-13T19:19:24.644Z,15.93
2023-05-13T19:21:52.389Z,15.93
2023-05-13T19:24:20.003Z,15.91
2023-05-13T19:26:47.592Z,15.88
2023-05-13T19:29:15.216Z,15.85
2023-05-13T19:31:43.123Z,15.87
2023-05-13T19:34:10.895Z,15.87
2023-05-13T19:36:38.798Z,15.81
2023-05-13T19:39:06.403Z,15.77
2023-05-13T19:41:34.592Z,15.74
2023-05-13T19:44:02.369Z,15.70
2023-05-13T19:46:30.072Z,15.59
2023-05-13T19:48:57.689Z,15.58
2023-05-13T19:51:26.740Z,15.51
2023-05-13T19:53:54.352Z,15.42
2023-05-13T19:56:23.142Z,15.32
2023-05-13T19:58:50.830Z,15.27
2023-05-13T20:01:18.834Z,15.18
2023-05-13T20:03:47.002Z,15.12
2023-05-13T20:06:14.672Z,15.05
2023-05-13T20:08:42.269Z,15.00
2023-05-13T20:11:10.056Z,14.96
2023-05-13T20:13:37.696Z,14.89
2023-05-13T20:16:05.522Z,14.78
2023-05-13T20:18:34.008Z,14.68
2023-05-13T20:21:01.906Z,14.58
2023-05-13T20:23:29.677Z,14.57
2023-05-13T20:25:58.384Z,14.50
2023-05-13T20:28:25.945Z,14.44
2023-05-13T20:30:54.155Z,14.43
2023-05-13T20:33:21.838Z,14.43
2023-05-13T20:35:49.525Z,14.45
2023-05-13T20:38:17.711Z,14.42
2023-05-13T20:40:45.339Z,14.37
2023-05-13T20:43:13.238Z,14.35
2023-05-13T20:45:40.967Z,14.33
2023-05-13T20:48:09.424Z,14.28
2023-05-13T20:50:37.417Z,14.23
2023-05-13T20:53:05.116Z,14.17
2023-05-13T20:55:32.896Z,14.16
2023-05-13T20:58:00.830Z,14.10
2023-05-13T21:00:28.474Z,14.04
2023-05-13T21:02:56.582Z,13.99
2023-05-13T21:05:24.419Z,13.93
2023-05-13T21:07:52.626Z,13.84
2023-05-13T21:10:20.545Z,13.80
2023-05-13T21:12:48.270Z,13.76
2023-05-13T21:15:16.750Z,13.69
2023-05-13T21:17:44.509Z,13.64
2023-05-13T21:20:12.684Z,13.58
2023-05-13T21:22:40.415Z,13.51
2023-05-13T21:25:10.526Z,13.48
2023-05-13T21:27:38.630Z,13.42
2023-05-13T21:30:06.803Z,13.37
2023-05-13T21:32:34.534Z,13.33
2023-05-13T21:35:02.163Z,13.28
2023-05-13T21:37:30.022Z,13.22
2023-05-13T21:39:57.715Z,13.18
2023-05-13T21:42:26.999Z,13.13
2023-05-13T21:44:54.804Z,13.07
2023-05-13T21:47:22.579Z,13.01
2023-05-13T21:49:50.402Z,12.95
2023-05-13T21:52:18.492Z,12.93
2023-05-13T21:54:46.108Z,12.86
2023-05-13T21:57:13.865Z,12.77
2023-05-13T21:59:41.654Z,12.70
2023-05-13T22:02:09.654Z,12.61
2023-05-13T22:04:39.857Z,12.59
2023-05-13T22:07:08.045Z,12.58
2023-05-13T22:09:35.914Z,12.55
2023-05-13T22:12:04.080Z,12.57
2023-05-13T22:14:31.962Z,12.56
2023-05-13T22:17:08.976Z,12.53
2023-05-13T22:19:37.845Z,12.48
2023-05-13T22:22:06.057Z,12.41
2023-05-13T22:24:33.843Z,12.36
2023-05-13T22:27:01.632Z,12.29
2023-05-13T22:29:29.383Z,12.21
2023-05-13T22:32:00.206Z,12.15
2023-05-13T22:34:27.992Z,12.10
2023-05-13T22:36:55.699Z,12.06
2023-05-13T22:39:23.319Z,12.02
2023-05-13T22:41:50.941Z,11.98
2023-05-13T22:44:18.636Z,11.95
2023-05-13T22:46:46.356Z,11.91
2023-05-13T22:49:14.193Z,11.89
2023-05-13T22:51:41.909Z,11.86
2023-05-13T22:54:09.620Z,11.78
2023-05-13T22:56:37.235Z,11.73
2023-05-13T22:59:06.176Z,11.70
2023-05-13T23:01:33.901Z,11.68
2023-05-13T23:04:02.898Z,11.65
2023-05-13T23:06:30.796Z,11.57
2023-05-13T23:08:58.392Z,11.53
2023-05-13T23:11:26.013Z,11.44
2023-05-13T23:13:53.850Z,11.39
2023-05-13T23:16:21.526Z,11.41
2023-05-13T23:18:49.339Z,11.30
2023-05-13T23:21:16.932Z,11.29
2023-05-13T23:23:44.820Z,11.34
2023-05-13T23:26:13.926Z,11.46
2023-05-13T23:28:42.650Z,11.54
2023-05-13T23:31:10.400Z,11.57
2023-05-13T23:33:38.002Z,11.59
2023-05-13T23:36:06.085Z,11.55
2023-05-13T23:38:34.753Z,11.56
2023-05-13T23:41:02.521Z,11.56
2023-05-13T23:43:30.355Z,11.53
2023-05-13T23:45:58.028Z,11.48
2023-05-13T23:48:28.869Z,11.45
2023-05-13T23:50:56.484Z,11.34
2023-05-13T23:53:24.054Z,11.29
2023-05-13T23:55:51.667Z,11.24
2023-05-13T23:58:19.336Z,11.12
